Time;durP1;ratioP1;P1;durP2;ratioP2;P2;SDS_P1;SDS_P2;PMS_P1;PMS_P2;Temp;Humidity;BMP_temperature;BMP_pressure;BME280_temperature;BME280_humidity;BME280_pressure;Samples;Min_cycle;Max_cycle;Signal;HPM_P1;HPM_P2
2024/04/19 00:03:01;;;;;;;27.50;10.30;;;;;;;5.93;65.46;98458.51;135172;1282;22534;-71
2024/04/19 00:06:03;;;;;;;29.80;10.70;;;;;;;5.89;66.14;98459.35;135116;1282;22548;-71
2024/04/19 00:09:06;;;;;;;30.40;10.50;;;;;;;5.93;65.46;98455.55;135099;1282;22536;-70
2024/04/19 00:12:08;;;;;;;25.30;9.70;;;;;;;5.88;65.56;98456.49;135135;1282;22608;-70
2024/04/19 00:15:11;;;;;;;28.90;9.90;;;;;;;5.82;65.74;98452.27;135154;1282;22708;-70
2024/04/19 00:18:13;;;;;;;26.50;9.90;;;;;;;5.80;65.56;98453.20;135125;1282;24154;-70
2024/04/19 00:21:15;;;;;;;28.80;10.40;;;;;;;5.74;66.14;98452.63;135153;1272;22567;-71
2024/04/19 00:24:17;;;;;;;31.50;10.40;;;;;;;5.74;64.95;98447.59;135179;1282;22530;-71
2024/04/19 00:27:19;;;;;;;29.20;11.50;;;;;;;5.69;65.79;98451.50;135160;1282;22555;-74
2024/04/19 00:30:22;;;;;;;28.90;10.90;;;;;;;5.71;65.68;98449.09;135138;1282;22558;-69
2024/04/19 00:33:24;;;;;;;28.40;10.50;;;;;;;5.71;65.89;98453.48;135149;1282;22656;-72
2024/04/19 00:36:26;;;;;;;29.50;11.50;;;;;;;5.67;65.72;98453.10;135164;1282;22635;-72
2024/04/19 00:39:28;;;;;;;27.70;10.10;;;;;;;5.59;66.03;98451.92;135147;1282;22558;-72
2024/04/19 00:42:31;;;;;;;26.40;10.40;;;;;;;5.53;66.53;98455.70;135162;1264;22579;-72
2024/04/19 00:45:33;;;;;;;33.20;11.60;;;;;;;5.44;66.11;98450.17;135138;1264;22557;-71
2024/04/19 00:48:36;;;;;;;;;;;;;;;5.43;66.11;98455.42;135147;1282;22528;-71
2024/04/19 00:51:38;;;;;;;31.00;10.70;;;;;;;5.34;66.67;98458.98;135152;1282;22560;-73
2024/04/19 00:54:40;;;;;;;31.10;11.30;;;;;;;5.27;67.33;98457.39;135166;1264;24381;-72
2024/04/19 00:57:42;;;;;;;32.00;11.70;;;;;;;5.28;67.22;98459.63;135140;1282;24277;-73
2024/04/19 01:00:45;;;;;;;29.50;12.10;;;;;;;5.27;67.34;98461.05;135136;1282;22543;-72
2024/04/19 01:03:47;;;;;;;30.00;11.20;;;;;;;5.31;66.95;98458.42;135161;1282;22652;-71
2024/04/19 01:06:50;;;;;;;30.90;12.00;;;;;;;5.28;66.57;98452.14;135181;1282;22651;-73
2024/04/19 01:09:52;;;;;;;35.00;13.00;;;;;;;5.27;66.37;98454.09;135192;1272;22999;-72
2024/04/19 01:12:54;;;;;;;35.60;12.90;;;;;;;5.27;66.07;98456.67;135147;1282;24513;-71
2024/04/19 01:15:56;;;;;;;32.60;13.50;;;;;;;5.17;66.74;98456.96;135158;1282;22541;-72
2024/04/19 01:18:58;;;;;;;31.70;12.70;;;;;;;5.13;67.14;98456.44;135106;1282;25500;-71
2024/04/19 01:22:01;;;;;;;36.80;12.80;;;;;;;5.08;67.17;98455.47;135142;1282;26539;-72
2024/04/19 01:25:03;;;;;;;37.80;13.40;;;;;;;5.09;66.84;98456.13;135155;1282;22554;-73
2024/04/19 01:28:05;;;;;;;31.50;12.50;;;;;;;5.09;65.96;98455.41;135168;1272;22541;-71
2024/04/19 01:31:07;;;;;;;33.90;13.00;;;;;;;5.10;65.98;98455.01;135162;1282;22559;-71
2024/04/19 01:34:10;;;;;;;33.10;12.70;;;;;;;5.16;65.72;98455.95;135195;1282;25433;-71
2024/04/19 01:37:12;;;;;;;36.60;14.80;;;;;;;5.15;65.23;98452.17;135143;1265;24270;-70
2024/04/19 01:40:14;;;;;;;55.40;22.70;;;;;;;5.14;64.70;98453.42;135159;1282;22650;-70
2024/04/19 01:43:16;;;;;;;76.60;33.10;;;;;;;5.12;64.42;98453.53;135122;1263;22551;-71
2024/04/19 01:46:19;;;;;;;75.30;31.80;;;;;;;5.10;64.13;98453.46;135146;1272;22772;-72
2024/04/19 01:49:21;;;;;;;47.40;21.10;;;;;;;5.08;64.08;98454.25;135141;1282;24400;-71
2024/04/19 01:52:23;;;;;;;36.80;14.90;;;;;;;5.01;64.08;98452.98;135191;1282;22573;-71
2024/04/19 01:55:25;;;;;;;35.20;14.00;;;;;;;5.04;64.04;98451.29;135122;1282;22577;-71
2024/04/19 01:58:28;;;;;;;;;;;;;;;5.07;64.07;98447.86;135181;1282;22531;-73
2024/04/19 02:01:30;;;;;;;31.70;12.90;;;;;;;5.08;63.54;98445.58;135150;1282;22591;-70
2024/04/19 02:04:32;;;;;;;33.00;13.70;;;;;;;5.00;63.81;98443.31;135166;1282;22543;-72
2024/04/19 02:07:35;;;;;;;33.90;13.30;;;;;;;4.88;63.89;98443.15;135164;1272;22538;-71
2024/04/19 02:10:38;;;;;;;33.70;13.90;;;;;;;4.81;63.99;98437.23;135164;1282;23692;-71
2024/04/19 02:13:40;;;;;;;32.10;13.80;;;;;;;4.76;64.04;98433.83;135194;1282;22618;-75
2024/04/19 02:16:43;;;;;;;36.70;14.30;;;;;;;4.69;63.97;98434.42;135181;1282;22623;-74
2024/04/19 02:19:45;;;;;;;32.10;13.30;;;;;;;4.72;63.93;98432.92;135133;1282;22657;-71
2024/04/19 02:22:47;;;;;;;31.80;12.70;;;;;;;4.77;63.81;98433.07;135164;1282;22656;-72
2024/04/19 02:25:49;;;;;;;30.00;11.80;;;;;;;4.77;64.21;98432.89;135118;1282;22665;-72
2024/04/19 02:32:11;;;;;;;33.90;13.30;;;;;;;4.82;64.06;98426.61;135159;1282;25354;-72
2024/04/19 02:35:13;;;;;;;32.60;13.50;;;;;;;4.78;63.88;98430.61;135177;1282;22534;-71
2024/04/19 02:38:16;;;;;;;31.70;13.00;;;;;;;4.79;63.95;98426.39;135182;1282;22562;-70
2024/04/19 02:41:18;;;;;;;31.60;13.00;;;;;;;4.73;64.04;98429.61;135155;1282;22679;-71
2024/04/19 02:44:20;;;;;;;30.70;12.60;;;;;;;4.67;65.21;98428.10;135168;1282;22534;-74
2024/04/19 02:47:22;;;;;;;35.00;13.20;;;;;;;4.62;64.94;98430.73;135154;1282;22567;-72
2024/04/19 02:50:25;;;;;;;30.20;12.50;;;;;;;4.70;64.88;98429.18;135188;1282;22538;-72
2024/04/19 02:53:27;;;;;;;32.00;12.60;;;;;;;4.74;64.58;98425.75;135147;1282;22577;-73
2024/04/19 02:56:29;;;;;;;27.30;10.70;;;;;;;4.75;64.62;98422.08;135171;1260;24225;-72
2024/04/19 02:59:31;;;;;;;30.40;12.50;;;;;;;4.75;64.23;98423.98;135152;1282;22533;-72
2024/04/19 03:02:33;;;;;;;29.80;11.00;;;;;;;4.76;64.12;98419.94;135159;1280;22646;-72
2024/04/19 03:05:36;;;;;;;31.60;12.00;;;;;;;4.75;63.81;98423.46;135130;1282;24219;-73
2024/04/19 03:08:38;;;;;;;30.60;12.70;;;;;;;4.69;64.15;98420.05;135139;1282;22650;-71
2024/04/19 03:11:40;;;;;;;31.60;12.80;;;;;;;4.70;63.95;98420.36;135125;1263;22604;-73
2024/04/19 03:14:42;;;;;;;31.60;12.50;;;;;;;4.66;63.87;98415.36;135161;1282;22534;-74
2024/04/19 03:17:44;;;;;;;34.10;13.00;;;;;;;4.65;63.75;98411.41;135182;1282;22570;-72
2024/04/19 03:20:47;;;;;;;43.40;15.40;;;;;;;4.64;64.03;98415.29;135150;1282;22578;-71
2024/04/19 03:23:49;;;;;;;38.20;13.00;;;;;;;4.71;64.11;98413.55;135171;1282;22570;-72
2024/04/19 03:26:51;;;;;;;32.70;12.40;;;;;;;4.62;64.89;98408.77;135177;1282;22547;-73
2024/04/19 03:29:54;;;;;;;37.30;12.80;;;;;;;4.71;65.00;98401.78;135138;1282;22541;-72
2024/04/19 03:32:56;;;;;;;;;;;;;;;4.74;64.78;98398.02;135184;1282;22523;-73
2024/04/19 03:35:58;;;;;;;39.10;14.40;;;;;;;4.81;65.15;98398.59;135109;1282;22565;-71
2024/04/19 03:39:00;;;;;;;34.10;13.50;;;;;;;4.83;65.05;98397.29;135156;1282;22551;-72
2024/04/19 03:42:10;;;;;;;35.00;13.80;;;;;;;4.86;65.49;98397.48;135136;1282;22536;-72
2024/04/19 03:48:32;;;;;;;32.10;12.70;;;;;;;5.03;64.86;98396.58;135120;1272;22654;-70
2024/04/19 03:51:35;;;;;;;31.40;12.50;;;;;;;5.03;65.56;98398.98;135162;1282;22675;-71
2024/04/19 03:54:37;;;;;;;30.80;13.10;;;;;;;5.27;64.65;98397.05;135148;1282;23931;-72
2024/04/19 03:57:39;;;;;;;32.80;13.00;;;;;;;5.31;65.34;98395.84;135121;1282;22566;-73
2024/04/19 04:00:41;;;;;;;33.50;13.10;;;;;;;5.24;66.06;98394.93;135157;1282;22541;-72
2024/04/19 04:03:43;;;;;;;30.60;12.00;;;;;;;5.31;66.09;98402.40;135130;1282;22538;-72
2024/04/19 04:06:46;;;;;;;27.70;11.30;;;;;;;5.33;66.65;98400.59;135154;1282;22559;-73
2024/04/19 04:09:48;;;;;;;31.30;12.60;;;;;;;5.34;66.89;98401.40;135114;1282;22579;-71
2024/04/19 04:12:50;;;;;;;30.70;12.20;;;;;;;5.39;67.21;98399.09;135107;1282;22566;-69
2024/04/19 04:15:53;;;;;;;31.70;12.70;;;;;;;5.41;67.61;98395.89;135116;1282;25362;-69
2024/04/19 04:18:55;;;;;;;37.70;17.60;;;;;;;5.46;67.71;98393.05;135143;1282;22544;-72
2024/04/19 04:21:57;;;;;;;39.50;17.40;;;;;;;5.54;67.44;98391.25;135138;1259;22578;-73
2024/04/19 04:24:59;;;;;;;36.90;15.50;;;;;;;5.66;67.65;98389.00;135129;1282;22588;-71
2024/04/19 04:28:01;;;;;;;31.30;12.20;;;;;;;5.74;67.17;98387.03;135130;1281;22598;-73
2024/04/19 04:31:04;;;;;;;29.80;11.40;;;;;;;5.87;67.46;98387.45;135112;1282;24399;-72
2024/04/19 04:34:06;;;;;;;26.80;10.30;;;;;;;5.99;67.61;98390.35;135121;1282;22538;-72
2024/04/19 04:37:08;;;;;;;28.70;10.10;;;;;;;6.11;67.08;98383.19;135138;1264;22541;-70
2024/04/19 04:40:10;;;;;;;29.80;10.30;;;;;;;6.21;67.45;98380.79;135134;1282;22567;-70
2024/04/19 04:43:14;;;;;;;28.80;11.50;;;;;;;6.31;67.66;98375.09;135130;1282;24488;-71
2024/04/19 04:46:17;;;;;;;27.10;9.60;;;;;;;6.34;67.76;98379.24;135121;1282;22609;-71
2024/04/19 04:49:19;;;;;;;25.90;10.50;;;;;;;6.42;68.00;98376.08;135136;1282;24369;-71
2024/04/19 04:52:23;;;;;;;29.10;10.20;;;;;;;6.55;67.49;98374.20;135122;1282;23923;-71
2024/04/19 04:55:26;;;;;;;28.50;10.40;;;;;;;6.63;67.41;98375.34;135145;1282;22546;-70
2024/04/19 04:58:28;;;;;;;25.70;9.10;;;;;;;6.72;66.96;98371.60;135170;1282;22653;-70
2024/04/19 05:01:30;;;;;;;24.70;8.70;;;;;;;6.77;66.61;98372.89;135154;1282;22675;-73
2024/04/19 05:04:33;;;;;;;;;;;;;;;6.80;66.60;98370.48;135145;1282;22551;-72
2024/04/19 05:07:35;;;;;;;27.20;9.70;;;;;;;6.85;66.37;98363.96;135110;1282;22572;-71
2024/04/19 05:10:38;;;;;;;;;;;;;;;6.91;66.07;98363.98;135169;1264;22637;-71
2024/04/19 05:13:40;;;;;;;25.40;10.20;;;;;;;6.94;65.55;98361.23;135148;1282;22544;-75
2024/04/19 05:16:42;;;;;;;26.10;10.10;;;;;;;7.02;65.45;98359.73;135148;1260;22534;-71
2024/04/19 05:19:44;;;;;;;27.10;9.60;;;;;;;7.09;65.35;98357.09;135148;1263;22672;-71
2024/04/19 05:22:46;;;;;;;30.50;11.30;;;;;;;7.21;65.16;98355.25;135147;1282;22600;-71
2024/04/19 05:25:50;;;;;;;27.50;10.10;;;;;;;7.34;65.06;98358.23;135134;1264;22570;-71
2024/04/19 05:28:53;;;;;;;28.70;10.30;;;;;;;7.32;65.16;98360.90;135109;1263;24234;-74
2024/04/19 05:31:55;;;;;;;26.30;9.50;;;;;;;7.39;65.15;98359.99;135156;1282;22536;-72
2024/04/19 05:34:57;;;;;;;27.00;9.80;;;;;;;7.58;65.22;98359.97;135132;1263;22590;-71
2024/04/19 05:38:00;;;;;;;26.90;9.80;;;;;;;7.81;65.12;98360.45;135124;1282;22581;-71
2024/04/19 05:41:02;;;;;;;28.40;11.00;;;;;;;7.91;64.76;98359.16;135146;1282;22534;-72
2024/04/19 05:44:04;;;;;;;28.30;10.30;;;;;;;8.24;65.34;98357.06;135121;1282;22545;-72
2024/04/19 05:47:06;;;;;;;24.80;9.50;;;;;;;8.69;64.88;98351.32;135128;1282;25477;-70
2024/04/19 05:50:09;;;;;;;24.30;9.30;;;;;;;9.14;65.41;98347.88;135119;1282;22655;-70
2024/04/19 05:53:11;;;;;;;25.10;8.80;;;;;;;9.51;64.50;98347.44;135114;1282;22536;-69
2024/04/19 05:56:13;;;;;;;23.00;7.80;;;;;;;9.80;62.43;98343.98;135143;1282;22574;-70
2024/04/19 05:59:15;;;;;;;22.10;8.10;;;;;;;9.91;61.17;98347.81;135169;1282;22556;-70
2024/04/19 06:02:17;;;;;;;21.20;7.30;;;;;;;10.16;61.11;98337.64;135119;1282;24401;-70
2024/04/19 06:05:20;;;;;;;21.80;7.10;;;;;;;10.13;60.11;98332.41;135120;1282;22540;-69
2024/04/19 06:08:22;;;;;;;21.70;7.10;;;;;;;10.35;59.44;98325.71;135119;1282;22545;-71
2024/04/19 06:11:32;;;;;;;23.40;6.60;;;;;;;10.58;59.03;98317.55;131115;1281;5374208;-72
2024/04/19 06:14:35;;;;;;;20.80;6.60;;;;;;;10.69;57.83;98313.62;135210;1281;22565;-70
2024/04/19 06:17:37;;;;;;;20.30;6.50;;;;;;;10.90;57.07;98318.84;135146;1282;22554;-70
2024/04/19 06:20:42;;;;;;;20.50;6.60;;;;;;;10.96;56.13;98315.92;135142;1282;22533;-69
2024/04/19 06:23:44;;;;;;;20.50;6.40;;;;;;;11.08;55.48;98322.65;135118;1282;22557;-69
2024/04/19 06:26:46;;;;;;;22.10;6.90;;;;;;;11.10;54.99;98309.50;135165;1282;22552;-70
2024/04/19 06:29:49;;;;;;;20.70;6.60;;;;;;;11.35;54.55;98306.55;135136;1282;22581;-69
2024/04/19 06:32:51;;;;;;;21.20;6.10;;;;;;;11.40;52.87;98310.33;135119;1282;25250;-70
2024/04/19 06:35:53;;;;;;;20.90;6.70;;;;;;;11.50;53.56;98306.79;135098;1282;22563;-71
2024/04/19 06:38:57;;;;;;;20.20;5.90;;;;;;;11.70;52.75;98298.20;135131;1282;22553;-70
2024/04/19 06:42:00;;;;;;;20.00;6.30;;;;;;;11.79;52.03;98295.99;135101;1282;22546;-69
2024/04/19 06:45:02;;;;;;;19.90;5.90;;;;;;;12.02;51.38;98291.27;135141;1282;25304;-70
2024/04/19 06:48:04;;;;;;;21.40;6.50;;;;;;;12.17;50.37;98296.48;135135;1282;26492;-69
2024/04/19 06:51:06;;;;;;;18.10;5.60;;;;;;;12.01;49.44;98304.34;135129;1282;25250;-69
2024/04/19 06:54:08;;;;;;;19.30;5.80;;;;;;;11.88;49.10;98301.23;135167;1282;22561;-70
2024/04/19 06:57:11;;;;;;;22.90;6.60;;;;;;;11.76;49.82;98307.55;135171;1282;22556;-71
2024/04/19 07:00:13;;;;;;;20.00;5.90;;;;;;;11.93;49.55;98301.42;135168;1282;22658;-70
2024/04/19 07:03:15;;;;;;;20.80;6.60;;;;;;;12.06;49.69;98298.15;135117;1282;22614;-68
2024/04/19 07:06:17;;;;;;;20.80;6.30;;;;;;;12.34;48.53;98287.80;135130;1263;22531;-71
2024/04/19 07:09:21;;;;;;;20.50;5.70;;;;;;;12.25;48.71;98292.23;135136;1258;22575;-71
2024/04/19 07:12:23;;;;;;;18.80;5.50;;;;;;;12.17;48.98;98289.48;135125;1282;24346;-71
2024/04/19 07:15:25;;;;;;;18.00;5.90;;;;;;;12.46;49.48;98279.35;135128;1264;22795;-71
2024/04/19 07:18:28;;;;;;;18.70;6.00;;;;;;;12.86;48.77;98266.61;135126;1282;22586;-71
2024/04/19 07:21:30;;;;;;;21.10;6.30;;;;;;;13.30;47.85;98263.09;135157;1282;22776;-70
2024/04/19 07:24:32;;;;;;;20.80;6.30;;;;;;;13.42;46.39;98259.85;135146;1282;22553;-71
2024/04/19 07:27:35;;;;;;;20.10;6.20;;;;;;;13.44;46.86;98259.38;135164;1282;22562;-73
2024/04/19 07:30:37;;;;;;;18.90;5.60;;;;;;;13.55;46.90;98263.41;135144;1282;25368;-70
2024/04/19 07:33:39;;;;;;;18.10;5.30;;;;;;;13.83;47.25;98255.63;135112;1263;22542;-70
2024/04/19 07:36:42;;;;;;;;;;;;;;;14.00;45.97;98255.44;135141;1282;22515;-70
2024/04/19 07:39:44;;;;;;;17.80;5.60;;;;;;;14.14;46.36;98255.17;135163;1282;22590;-70
2024/04/19 07:42:46;;;;;;;18.40;5.50;;;;;;;13.83;44.87;98259.45;135148;1282;22641;-69
2024/04/19 07:45:48;;;;;;;20.00;6.00;;;;;;;13.67;45.16;98255.39;135117;1282;22565;-70
2024/04/19 07:48:50;;;;;;;20.10;6.20;;;;;;;13.83;45.19;98262.45;135109;1282;22588;-70
2024/04/19 07:51:53;;;;;;;22.00;6.40;;;;;;;14.08;45.63;98249.70;135151;1282;22588;-70
2024/04/19 07:54:55;;;;;;;22.20;7.10;;;;;;;14.34;44.65;98253.85;135148;1282;22553;-70
2024/04/19 07:57:58;;;;;;;21.00;6.30;;;;;;;14.48;44.80;98247.52;135107;1259;22675;-68
2024/04/19 08:01:00;;;;;;;19.20;6.30;;;;;;;14.06;44.21;98253.88;135097;1282;22539;-68
2024/04/19 08:04:02;;;;;;;21.10;7.20;;;;;;;13.77;44.77;98247.73;135107;1282;22547;-69
2024/04/19 08:07:04;;;;;;;19.60;6.60;;;;;;;13.62;45.71;98237.00;135071;1282;25660;-70
2024/04/19 08:10:07;;;;;;;21.50;7.90;;;;;;;13.61;45.54;98240.43;135118;1262;22560;-69
2024/04/19 08:13:09;;;;;;;21.50;7.80;;;;;;;13.54;45.22;98236.80;135121;1274;22534;-70
2024/04/19 08:16:12;;;;;;;20.60;7.90;;;;;;;13.89;46.41;98231.09;135130;1282;22540;-70
2024/04/19 08:19:14;;;;;;;23.00;7.80;;;;;;;14.18;45.52;98218.40;135157;1282;24236;-70
2024/04/19 08:22:16;;;;;;;20.40;7.60;;;;;;;14.56;44.77;98211.87;135147;1258;24448;-70
2024/04/19 08:25:19;;;;;;;19.70;7.70;;;;;;;14.78;43.93;98216.81;135152;1282;22618;-70
2024/04/19 08:28:25;;;;;;;18.80;6.60;;;;;;;14.20;42.91;98222.98;135171;1282;22530;-70
2024/04/19 08:31:27;;;;;;;20.60;7.20;;;;;;;13.82;44.08;98207.77;135128;1282;22651;-70
2024/04/19 08:34:29;;;;;;;21.30;7.20;;;;;;;13.78;43.55;98209.86;135152;1282;22544;-69
2024/04/19 08:37:32;;;;;;;22.00;6.60;;;;;;;13.74;44.24;98209.30;135154;1258;24232;-74
2024/04/19 08:40:34;;;;;;;20.40;7.20;;;;;;;13.65;44.74;98210.77;135160;1282;22590;-71
2024/04/19 08:43:37;;;;;;;20.40;7.20;;;;;;;14.01;45.34;98204.41;135181;1282;22580;-71
2024/04/19 08:46:40;;;;;;;20.50;6.40;;;;;;;14.15;44.06;98204.98;135150;1264;22774;-70
2024/04/19 08:49:43;;;;;;;19.30;6.30;;;;;;;14.06;44.05;98214.19;135174;1282;22557;-70
2024/04/19 08:52:47;;;;;;;17.90;6.20;;;;;;;13.84;43.92;98212.33;135157;1266;22656;-71
2024/04/19 08:55:49;;;;;;;19.80;6.40;;;;;;;13.62;44.36;98203.60;135141;1282;22534;-70
2024/04/19 08:58:53;;;;;;;19.40;5.90;;;;;;;13.60;44.35;98196.05;135180;1282;25603;-70
2024/04/19 09:01:56;;;;;;;18.30;6.30;;;;;;;13.69;44.32;98189.51;135148;1266;22769;-69
2024/04/19 09:04:59;;;;;;;18.70;6.20;;;;;;;13.82;44.47;98199.86;135177;1258;22646;-70
2024/04/19 09:08:01;;;;;;;18.70;5.60;;;;;;;13.76;43.70;98208.45;135155;1263;22543;-70
2024/04/19 09:11:04;;;;;;;;;;;;;;;13.65;43.05;98204.92;135174;1282;22512;-70
2024/04/19 09:14:06;;;;;;;18.70;5.80;;;;;;;13.52;43.54;98199.92;135123;1282;22623;-70
2024/04/19 09:17:09;;;;;;;16.60;5.10;;;;;;;13.58;43.72;98195.86;135146;1282;22542;-70
2024/04/19 09:20:11;;;;;;;19.40;5.90;;;;;;;13.53;44.11;98194.36;135176;1282;22589;-69
2024/04/19 09:23:13;;;;;;;17.20;5.60;;;;;;;13.45;44.31;98191.67;135187;1282;22650;-70
2024/04/19 09:26:15;;;;;;;17.90;5.30;;;;;;;13.33;43.72;98192.15;135159;1282;22566;-70
2024/04/19 09:29:18;;;;;;;16.30;5.10;;;;;;;13.32;43.65;98194.70;135157;1282;22550;-70
2024/04/19 09:32:20;;;;;;;19.60;5.50;;;;;;;13.54;44.31;98179.70;135147;1262;23140;-70
2024/04/19 09:35:22;;;;;;;;;;;;;;;13.48;42.01;98192.61;135200;1282;26722;-71
2024/04/19 09:38:24;;;;;;;14.30;3.30;;;;;;;13.20;42.58;98193.32;135163;1282;22512;-71
2024/04/19 09:41:27;;;;;;;14.40;4.10;;;;;;;13.53;42.66;98178.73;135183;1282;22577;-71
2024/04/19 09:44:29;;;;;;;;;;;;;;;13.78;42.95;98169.59;135169;1282;22519;-70
2024/04/19 09:47:32;;;;;;;15.90;4.30;;;;;;;13.72;42.23;98173.96;135144;1263;22603;-71
2024/04/19 09:50:34;;;;;;;15.10;3.80;;;;;;;13.82;43.07;98160.79;135131;1282;26628;-71
2024/04/19 09:53:36;;;;;;;15.70;3.60;;;;;;;13.97;43.08;98151.13;135184;1282;22541;-71
2024/04/19 09:56:39;;;;;;;12.50;3.50;;;;;;;13.93;42.07;98165.36;135163;1282;22534;-71
2024/04/19 09:59:42;;;;;;;16.50;3.30;;;;;;;13.61;41.64;98157.86;135156;1263;22544;-72
2024/04/19 10:02:44;;;;;;;11.70;3.20;;;;;;;13.56;42.14;98150.75;135157;1282;22553;-73
2024/04/19 10:05:46;;;;;;;9.30;2.80;;;;;;;13.55;41.88;98153.59;135174;1282;22561;-72
2024/04/19 10:08:48;;;;;;;10.80;3.20;;;;;;;13.64;41.49;98136.14;135131;1282;22569;-70
2024/04/19 10:11:50;;;;;;;12.70;3.20;;;;;;;13.72;41.89;98124.25;135172;1282;22559;-71
2024/04/19 10:14:53;;;;;;;13.40;3.80;;;;;;;14.17;42.44;98121.95;135176;1282;22651;-71
2024/04/19 10:17:55;;;;;;;9.60;3.00;;;;;;;14.86;41.63;98127.23;135164;1282;22549;-70
2024/04/19 10:20:57;;;;;;;7.70;2.90;;;;;;;15.57;40.12;98115.68;135099;1282;22599;-71
2024/04/19 10:24:00;;;;;;;8.50;3.10;;;;;;;15.91;39.23;98106.92;135161;1282;22531;-72
2024/04/19 10:27:02;;;;;;;8.70;2.80;;;;;;;16.04;38.63;98106.04;135204;1282;25452;-69
2024/04/19 10:30:08;;;;;;;13.50;3.00;;;;;;;16.23;38.80;98097.52;135163;1282;22541;-70
2024/04/19 10:33:10;;;;;;;12.80;3.30;;;;;;;16.66;37.95;98090.36;135170;1282;22545;-70
2024/04/19 10:36:12;;;;;;;13.30;3.40;;;;;;;16.97;37.79;98082.73;135151;1280;22554;-70
2024/04/19 10:39:15;;;;;;;11.50;3.20;;;;;;;16.93;37.45;98075.05;135174;1282;22575;-69
2024/04/19 10:42:18;;;;;;;9.50;3.30;;;;;;;16.57;36.92;98067.46;135162;1264;24408;-70
2024/04/19 10:45:22;;;;;;;9.70;3.20;;;;;;;16.06;37.12;98074.84;135153;1282;22559;-70
2024/04/19 10:48:24;;;;;;;14.30;3.30;;;;;;;15.71;37.58;98070.67;135145;1282;25430;-69
2024/04/19 10:51:27;;;;;;;11.20;3.00;;;;;;;15.76;37.49;98061.05;135148;1282;25503;-70
2024/04/19 10:54:30;;;;;;;11.90;3.40;;;;;;;15.72;37.43;98052.44;135144;1280;25293;-69
2024/04/19 10:57:32;;;;;;;;;;;;;;;15.60;37.77;98049.61;135163;1264;24374;-70
2024/04/19 11:00:35;;;;;;;10.10;3.10;;;;;;;15.39;38.11;98055.35;135171;1282;22528;-73
2024/04/19 11:03:37;;;;;;;14.30;3.40;;;;;;;15.68;38.63;98046.27;135195;1282;22553;-71
2024/04/19 11:06:39;;;;;;;11.40;3.20;;;;;;;15.92;37.57;98046.13;135165;1282;23006;-70
2024/04/19 11:09:41;;;;;;;9.90;2.90;;;;;;;15.80;38.32;98042.01;135165;1282;22605;-71
2024/04/19 11:12:43;;;;;;;9.30;3.20;;;;;;;15.58;37.60;98038.80;135111;1282;22555;-69
2024/04/19 11:15:46;;;;;;;11.50;3.30;;;;;;;15.50;38.25;98035.78;135188;1282;22544;-70
2024/04/19 11:18:48;;;;;;;13.80;3.40;;;;;;;15.51;38.53;98034.65;135169;1282;23006;-70
2024/04/19 11:21:50;;;;;;;11.10;3.10;;;;;;;15.32;37.85;98027.95;135146;1282;22544;-70
2024/04/19 11:24:52;;;;;;;16.10;4.80;;;;;;;15.32;38.44;98026.21;135160;1282;22566;-70
2024/04/19 11:27:55;;;;;;;14.70;3.70;;;;;;;15.50;39.17;98017.49;135174;1263;22682;-68
2024/04/19 11:31:00;;;;;;;9.50;3.00;;;;;;;15.68;38.28;98020.21;135129;1282;22540;-70
2024/04/19 11:34:03;;;;;;;12.70;3.30;;;;;;;15.90;37.65;98017.13;135177;1282;22618;-69
2024/04/19 11:37:05;;;;;;;10.80;3.40;;;;;;;16.40;37.42;98008.60;135132;1282;22550;-69
2024/04/19 11:40:07;;;;;;;13.60;3.00;;;;;;;16.67;37.55;98000.42;135184;1282;22549;-70
2024/04/19 11:43:10;;;;;;;;;;;;;;;16.45;36.80;97999.77;135174;1282;22518;-70
2024/04/19 11:46:12;;;;;;;7.70;2.70;;;;;;;15.95;37.18;97999.11;135133;1258;22537;-70
2024/04/19 11:49:14;;;;;;;11.00;3.30;;;;;;;15.31;37.38;98007.29;135180;1282;22570;-70
2024/04/19 11:52:16;;;;;;;11.30;3.40;;;;;;;14.91;39.37;98012.88;135167;1282;22775;-69
2024/04/19 11:55:19;;;;;;;10.00;2.90;;;;;;;14.52;40.69;98031.49;135151;1282;22543;-71
2024/04/19 11:58:21;;;;;;;11.80;3.40;;;;;;;13.70;43.75;98051.48;135161;1282;22570;-70
2024/04/19 12:01:25;;;;;;;;;;;;;;;13.02;47.02;98062.26;135161;1282;22564;-70
2024/04/19 12:04:27;;;;;;;16.30;4.90;;;;;;;12.66;50.45;98059.66;135134;1271;22579;-73
2024/04/19 12:07:29;;;;;;;15.10;4.30;;;;;;;13.01;53.10;98070.42;135088;1282;23704;-71
2024/04/19 12:10:32;;;;;;;13.80;3.90;;;;;;;13.04;52.75;98070.86;135114;1282;22541;-70
2024/04/19 12:13:34;;;;;;;13.90;3.90;;;;;;;12.85;52.58;98072.48;135143;1264;23159;-70
2024/04/19 12:16:36;;;;;;;12.60;4.40;;;;;;;12.56;51.85;98089.70;135123;1282;25488;-69
2024/04/19 12:19:38;;;;;;;12.50;3.60;;;;;;;12.41;51.54;98080.58;135164;1282;22558;-71
2024/04/19 12:22:41;;;;;;;12.50;3.70;;;;;;;12.17;51.24;98090.70;135178;1282;22557;-70
2024/04/19 12:25:43;;;;;;;11.40;3.20;;;;;;;11.90;51.79;98090.33;135143;1282;22668;-71
2024/04/19 12:28:45;;;;;;;11.10;3.50;;;;;;;11.70;52.96;98087.34;135160;1282;22547;-70
2024/04/19 12:31:47;;;;;;;9.20;3.20;;;;;;;11.47;53.91;98083.35;135143;1282;24207;-69
2024/04/19 12:34:50;;;;;;;11.40;3.20;;;;;;;10.80;55.87;98091.80;135149;1282;22544;-73
2024/04/19 12:37:52;;;;;;;14.50;4.00;;;;;;;10.21;60.14;98083.64;135179;1265;22543;-73
2024/04/19 12:40:55;;;;;;;;;;;;;;;10.10;59.69;98077.02;135178;1282;22529;-74
2024/04/19 12:43:57;;;;;;;14.40;4.40;;;;;;;10.20;59.26;98073.01;135173;1282;22541;-71
2024/04/19 12:46:59;;;;;;;17.90;5.00;;;;;;;10.60;58.42;98056.70;135178;1282;22544;-71
2024/04/19 12:50:01;;;;;;;17.00;5.00;;;;;;;11.09;57.74;98043.84;135191;1282;22538;-73
2024/04/19 12:53:03;;;;;;;19.40;5.80;;;;;;;11.60;56.92;98029.77;135170;1282;22547;-72
2024/04/19 12:56:06;;;;;;;18.20;5.00;;;;;;;12.62;56.99;98010.63;135168;1282;22559;-71
2024/04/19 12:59:08;;;;;;;;;;;;;;;13.88;54.55;97995.42;135173;1282;25243;-72
2024/04/19 13:02:11;;;;;;;16.20;4.50;;;;;;;14.61;51.03;97982.03;135192;1282;22650;-70
2024/04/19 13:05:13;;;;;;;20.60;5.00;;;;;;;15.25;49.92;97968.40;135160;1282;22598;-71
2024/04/19 13:08:15;;;;;;;16.00;4.30;;;;;;;15.68;49.25;97959.38;135181;1282;22542;-70
2024/04/19 13:11:17;;;;;;;15.10;4.10;;;;;;;16.16;49.65;97955.33;135169;1282;22558;-71
2024/04/19 13:14:22;;;;;;;15.10;4.30;;;;;;;16.66;48.66;97948.27;135120;1282;22551;-70
2024/04/19 13:17:24;;;;;;;21.60;6.10;;;;;;;16.72;46.70;97942.28;135191;1263;22541;-71
2024/04/19 13:20:26;;;;;;;13.50;4.20;;;;;;;16.64;46.10;97936.14;135207;1264;22667;-71
2024/04/19 13:23:28;;;;;;;15.70;4.50;;;;;;;16.82;47.16;97936.17;135200;1258;22563;-73
2024/04/19 13:26:30;;;;;;;16.20;4.90;;;;;;;16.99;45.36;97928.06;135153;1282;24281;-70
2024/04/19 13:29:34;;;;;;;16.00;5.00;;;;;;;17.03;45.41;97928.59;135205;1282;22601;-70
2024/04/19 13:32:36;;;;;;;19.80;5.00;;;;;;;17.33;46.55;97918.98;135137;1263;22530;-71
2024/04/19 13:35:38;;;;;;;;;;;;;;;17.62;45.47;97913.35;135184;1282;23874;-69
2024/04/19 13:38:41;;;;;;;22.90;6.80;;;;;;;17.74;44.67;97911.00;135168;1263;22570;-70
2024/04/19 13:41:43;;;;;;;22.80;7.80;;;;;;;17.88;44.17;97901.63;135158;1282;22547;-70
2024/04/19 13:44:45;;;;;;;20.70;6.70;;;;;;;18.04;43.76;97899.72;135139;1282;22550;-71
2024/04/19 13:47:47;;;;;;;25.90;10.30;;;;;;;18.08;43.89;97900.73;135163;1282;22591;-69
2024/04/19 13:50:50;;;;;;;22.10;8.00;;;;;;;18.27;43.75;97898.91;135180;1282;22617;-69
2024/04/19 13:53:52;;;;;;;15.20;4.80;;;;;;;18.47;42.59;97890.59;135161;1282;22596;-69
2024/04/19 13:56:55;;;;;;;18.70;5.90;;;;;;;18.43;42.02;97889.19;135181;1282;22544;-70
2024/04/19 13:59:57;;;;;;;22.50;7.30;;;;;;;18.61;42.04;97881.24;135158;1267;22598;-69
2024/04/19 14:02:59;;;;;;;18.00;6.40;;;;;;;18.90;41.74;97876.38;135172;1282;22556;-69
2024/04/19 14:06:01;;;;;;;20.10;5.90;;;;;;;19.01;41.01;97867.89;135175;1282;22570;-69
2024/04/19 14:09:07;;;;;;;20.30;5.30;;;;;;;19.28;41.56;97862.90;135162;1282;22550;-69
2024/04/19 14:12:10;;;;;;;20.80;6.30;;;;;;;19.38;39.51;97858.24;135177;1282;22651;-69